Time;durP1;ratioP1;P1;durP2;ratioP2;P2;SDS_P1;SDS_P2;PMS_P1;PMS_P2;Temp;Humidity;BMP_temperature;BMP_pressure;BME280_temperature;BME280_humidity;BME280_pressure;Samples;Min_cycle;Max_cycle;Signal;HPM_P1;HPM_P2
2022/12/06 00:01:45;;;;;;;55.13;29.20;;;;;;;;;;6307936;22;20152;-70
2022/12/06 00:04:12;;;;;;;58.00;28.47;;;;;;;;;;6309113;22;20583;-68
2022/12/06 00:06:40;;;;;;;56.73;28.70;;;;;;;;;;6307098;22;20176;-70
2022/12/06 00:09:07;;;;;;;58.50;29.30;;;;;;;;;;6307943;22;20504;-71
2022/12/06 00:11:34;;;;;;;52.97;27.57;;;;;;;;;;6307919;22;20156;-71
2022/12/06 00:14:01;;;;;;;54.93;29.37;;;;;;;;;;6309831;22;20148;-71
2022/12/06 00:16:27;;;;;;;67.60;29.67;;;;;;;;;;6309966;22;20164;-71
2022/12/06 00:18:53;;;;;;;67.43;30.43;;;;;;;;;;6313662;22;20145;-70
2022/12/06 00:21:24;;;;;;;53.23;27.97;;;;;;;;;;6311044;22;20153;-71
2022/12/06 00:23:52;;;;;;;54.10;29.70;;;;;;;;;;6309843;22;20227;-71
2022/12/06 00:26:18;;;;;;;52.20;29.13;;;;;;;;;;6308564;22;20164;-70
2022/12/06 00:28:44;;;;;;;54.70;29.57;;;;;;;;;;6306498;22;20239;-70
2022/12/06 00:31:13;;;;;;;53.17;29.00;;;;;;;;;;6308459;22;20152;-71
2022/12/06 00:33:39;;;;;;;50.47;29.43;;;;;;;;;;6306350;22;20160;-71
2022/12/06 00:36:06;;;;;;;61.50;31.27;;;;;;;;;;6307666;22;20225;-71
2022/12/06 00:38:33;;;;;;;52.80;31.23;;;;;;;;;;6306327;22;20159;-71
2022/12/06 00:41:04;;;;;;;66.20;32.53;;;;;;;;;;6306253;22;20540;-71
2022/12/06 00:43:31;;;;;;;58.73;29.73;;;;;;;;;;6308164;22;20215;-71
2022/12/06 00:45:57;;;;;;;67.17;31.17;;;;;;;;;;6305931;22;20653;-70
2022/12/06 00:48:23;;;;;;;70.20;31.17;;;;;;;;;;6308029;22;20198;-71
2022/12/06 00:50:49;;;;;;;62.43;31.73;;;;;;;;;;6306027;22;20504;-70
2022/12/06 00:53:15;;;;;;;57.87;30.13;;;;;;;;;;6306085;22;20168;-71
2022/12/06 00:55:42;;;;;;;57.70;30.77;;;;;;;;;;6307464;22;20172;-71
2022/12/06 00:58:08;;;;;;;53.40;31.20;;;;;;;;;;6305826;22;20180;-71
2022/12/06 01:00:34;;;;;;;55.33;29.57;;;;;;;;;;6307783;22;20718;-70
2022/12/06 01:03:00;;;;;;;58.67;31.03;;;;;;;;;;6307537;22;20219;-70
2022/12/06 01:05:26;;;;;;;57.63;30.03;;;;;;;;;;6306025;22;20177;-70
2022/12/06 01:07:52;;;;;;;53.30;30.67;;;;;;;;;;6305857;22;20210;-71
2022/12/06 01:10:18;;;;;;;67.37;30.60;;;;;;;;;;6305862;22;20599;-71
2022/12/06 01:12:44;;;;;;;65.67;31.43;;;;;;;;;;6305961;22;20684;-71
2022/12/06 01:15:10;;;;;;;47.70;28.63;;;;;;;;;;6305846;22;20161;-71
2022/12/06 01:17:36;;;;;;;52.10;29.60;;;;;;;;;;6307647;22;20594;-71
2022/12/06 01:20:03;;;;;;;57.60;30.07;;;;;;;;;;6307532;22;20255;-71
2022/12/06 01:22:29;;;;;;;55.33;29.80;;;;;;;;;;6307763;22;20459;-71
2022/12/06 01:24:55;;;;;;;56.73;30.37;;;;;;;;;;6305868;22;20290;-71
2022/12/06 01:27:21;;;;;;;51.60;29.07;;;;;;;;;;6307332;22;20175;-71
2022/12/06 01:29:47;;;;;;;55.13;30.33;;;;;;;;;;6307546;22;20609;-71
2022/12/06 01:32:13;;;;;;;54.20;30.17;;;;;;;;;;6308438;22;20640;-71
2022/12/06 01:34:39;;;;;;;59.67;29.47;;;;;;;;;;6307494;22;20191;-71
2022/12/06 01:37:05;;;;;;;53.40;29.57;;;;;;;;;;6309131;22;20225;-71
2022/12/06 01:39:31;;;;;;;49.27;29.40;;;;;;;;;;6307701;22;20188;-71
2022/12/06 01:41:57;;;;;;;54.43;29.07;;;;;;;;;;6309436;22;20149;-71
2022/12/06 01:44:38;;;;;;;48.63;28.73;;;;;;;;;;6308944;22;20155;-71
2022/12/06 01:47:04;;;;;;;54.07;29.37;;;;;;;;;;6308780;22;20507;-71
2022/12/06 01:49:33;;;;;;;60.73;33.10;;;;;;;;;;6309258;22;20371;-71
2022/12/06 01:52:01;;;;;;;55.97;30.63;;;;;;;;;;6309021;22;20540;-71
2022/12/06 01:54:27;;;;;;;54.80;29.80;;;;;;;;;;6308814;22;20461;-71
2022/12/06 01:56:54;;;;;;;56.13;30.43;;;;;;;;;;6307174;22;20183;-71
2022/12/06 01:59:20;;;;;;;54.27;28.33;;;;;;;;;;6309091;22;20520;-71
2022/12/06 02:01:47;;;;;;;56.13;27.93;;;;;;;;;;6307260;22;20175;-71
2022/12/06 02:04:13;;;;;;;67.90;29.37;;;;;;;;;;6308856;22;20148;-71
2022/12/06 02:06:40;;;;;;;44.60;27.03;;;;;;;;;;6308652;22;20195;-71
2022/12/06 02:09:07;;;;;;;46.40;26.73;;;;;;;;;;6307087;22;20148;-71
2022/12/06 02:11:33;;;;;;;60.70;29.03;;;;;;;;;;6307231;22;20201;-71
2022/12/06 02:14:00;;;;;;;47.63;26.17;;;;;;;;;;6307281;22;20587;-71
2022/12/06 02:16:36;;;;;;;67.23;29.43;;;;;;;;;;6308648;22;20168;-71
2022/12/06 02:19:15;;;;;;;39.87;25.87;;;;;;;;;;6308717;22;20129;-71
2022/12/06 02:21:50;;;;;;;42.47;24.43;;;;;;;;;;6308951;22;20141;-71
2022/12/06 02:24:35;;;;;;;41.97;25.13;;;;;;;;;;6307019;22;20494;-71
2022/12/06 02:27:01;;;;;;;44.43;26.23;;;;;;;;;;6306936;22;20176;-71
2022/12/06 02:29:42;;;;;;;45.80;26.13;;;;;;;;;;6308829;22;20153;-71
2022/12/06 02:32:11;;;;;;;45.57;25.40;;;;;;;;;;6308574;22;20144;-71
2022/12/06 02:34:52;;;;;;;46.67;26.47;;;;;;;;;;6308475;22;20159;-71
2022/12/06 02:37:18;;;;;;;45.13;27.20;;;;;;;;;;6308460;22;20182;-75
2022/12/06 02:39:44;;;;;;;48.33;26.27;;;;;;;;;;6308379;22;20255;-71
2022/12/06 02:42:15;;;;;;;43.27;24.20;;;;;;;;;;6306771;22;20180;-71
2022/12/06 02:44:44;;;;;;;41.27;23.67;;;;;;;;;;6308506;22;20168;-71
2022/12/06 02:47:12;;;;;;;37.80;22.27;;;;;;;;;;6308170;22;20236;-71
2022/12/06 02:49:43;;;;;;;47.70;24.63;;;;;;;;;;6308247;22;20176;-71
2022/12/06 02:52:09;;;;;;;40.77;23.50;;;;;;;;;;6308543;22;20609;-71
2022/12/06 02:54:35;;;;;;;45.77;24.03;;;;;;;;;;6306686;22;20156;-71
2022/12/06 02:57:01;;;;;;;50.17;25.43;;;;;;;;;;6308285;22;20229;-71
2022/12/06 02:59:27;;;;;;;42.43;23.67;;;;;;;;;;6308018;22;20221;-71
2022/12/06 03:01:56;;;;;;;43.63;23.83;;;;;;;;;;6308264;22;20144;-71
2022/12/06 03:04:46;;;;;;;39.30;22.03;;;;;;;;;;6308152;22;20151;-71
2022/12/06 03:07:32;;;;;;;34.63;20.20;;;;;;;;;;6308186;22;20164;-71
2022/12/06 03:10:08;;;;;;;36.07;21.40;;;;;;;;;;6307814;22;20230;-71
2022/12/06 03:12:46;;;;;;;37.10;21.33;;;;;;;;;;6308722;22;20140;-71
2022/12/06 03:15:12;;;;;;;32.53;20.07;;;;;;;;;;6306304;22;20251;-71
2022/12/06 03:17:48;;;;;;;30.97;18.07;;;;;;;;;;6308145;22;20176;-71
2022/12/06 03:20:28;;;;;;;27.93;17.90;;;;;;;;;;6308719;22;20548;-71
2022/12/06 03:22:58;;;;;;;28.93;17.03;;;;;;;;;;6306368;22;20156;-71
2022/12/06 03:25:25;;;;;;;30.77;18.57;;;;;;;;;;6306347;22;20144;-71
2022/12/06 03:27:51;;;;;;;31.00;17.17;;;;;;;;;;6308006;22;20159;-71
2022/12/06 03:30:17;;;;;;;30.13;16.97;;;;;;;;;;6308700;22;20153;-71
2022/12/06 03:32:46;;;;;;;41.33;18.33;;;;;;;;;;6306261;22;20161;-71
2022/12/06 03:35:14;;;;;;;38.00;19.20;;;;;;;;;;6308150;22;20148;-71
2022/12/06 03:37:42;;;;;;;35.40;17.83;;;;;;;;;;6308121;22;20167;-71
2022/12/06 03:40:14;;;;;;;33.00;17.97;;;;;;;;;;6306117;22;20187;-71
2022/12/06 03:42:40;;;;;;;37.27;18.97;;;;;;;;;;6306273;22;20160;-71
2022/12/06 03:45:07;;;;;;;35.47;17.87;;;;;;;;;;6308017;22;20149;-70
2022/12/06 03:47:36;;;;;;;39.50;19.17;;;;;;;;;;6307653;22;20168;-71
2022/12/06 03:50:04;;;;;;;33.93;18.50;;;;;;;;;;6307806;22;20587;-71
2022/12/06 03:52:30;;;;;;;39.30;19.57;;;;;;;;;;6306119;22;20499;-72
2022/12/06 03:54:56;;;;;;;32.93;17.80;;;;;;;;;;6307542;22;20503;-71
2022/12/06 03:57:22;;;;;;;37.63;18.40;;;;;;;;;;6307611;22;20168;-71
2022/12/06 03:59:48;;;;;;;39.13;19.00;;;;;;;;;;6306000;22;20183;-71
2022/12/06 04:02:14;;;;;;;34.93;17.97;;;;;;;;;;6307570;22;20148;-71
2022/12/06 04:04:40;;;;;;;37.47;18.87;;;;;;;;;;6307540;22;20603;-71
2022/12/06 04:07:06;;;;;;;35.60;17.47;;;;;;;;;;6305876;22;20175;-71
2022/12/06 04:15:01;;;;;;;33.50;18.40;;;;;;;;;;6307847;22;20231;-71
2022/12/06 04:20:12;;;;;;;37.40;17.33;;;;;;;;;;6307632;22;20182;-71
2022/12/06 04:25:22;;;;;;;40.50;17.80;;;;;;;;;;6307803;22;20597;-71
2022/12/06 04:38:46;;;;;;;32.07;17.67;;;;;;;;;;6313822;22;20526;-71
2022/12/06 04:43:40;;;;;;;31.30;17.37;;;;;;;;;;6314676;22;20180;-71
2022/12/06 04:43:59;;;;;;;31.50;17.17;;;;;;;;;;6319796;22;20164;-71
2022/12/06 04:46:24;;;;;;;31.57;16.30;;;;;;;;;;6310714;22;20196;-71
2022/12/06 04:48:51;;;;;;;30.13;16.83;;;;;;;;;;6308185;22;20194;-72
2022/12/06 04:53:47;;;;;;;29.97;17.17;;;;;;;;;;6280439;22;20190;-71
2022/12/06 04:56:13;;;;;;;36.83;19.07;;;;;;;;;;6279477;22;20490;-71
2022/12/06 04:58:39;;;;;;;35.33;18.10;;;;;;;;;;6280373;22;20149;-71
2022/12/06 05:01:05;;;;;;;33.60;18.50;;;;;;;;;;6279073;22;20638;-70
2022/12/06 05:03:31;;;;;;;36.20;17.23;;;;;;;;;;6249989;22;20177;-71
2022/12/06 05:05:57;;;;;;;42.87;19.27;;;;;;;;;;6247412;23;20496;-72
2022/12/06 05:08:23;;;;;;;34.70;17.40;;;;;;;;;;6249263;23;20269;-72
2022/12/06 05:10:49;;;;;;;31.60;16.53;;;;;;;;;;6249453;23;20233;-71
2022/12/06 05:13:16;;;;;;;39.13;17.53;;;;;;;;;;6251203;22;20561;-71
2022/12/06 05:15:49;;;;;;;35.80;16.63;;;;;;;;;;6248862;22;20505;-70
2022/12/06 05:18:15;;;;;;;35.63;17.37;;;;;;;;;;6248748;22;20147;-70
2022/12/06 05:20:41;;;;;;;31.70;17.40;;;;;;;;;;6248333;23;20264;-71
2022/12/06 05:23:07;;;;;;;36.23;18.30;;;;;;;;;;6248763;22;20223;-71
2022/12/06 05:25:32;;;;;;;44.57;19.87;;;;;;;;;;6250365;23;20480;-71
2022/12/06 05:27:58;;;;;;;41.63;21.20;;;;;;;;;;6251708;23;20173;-71
2022/12/06 05:30:24;;;;;;;38.70;18.93;;;;;;;;;;6251373;23;20204;-72
2022/12/06 05:32:50;;;;;;;36.73;18.70;;;;;;;;;;6250494;22;20177;-72
2022/12/06 05:35:16;;;;;;;33.97;18.73;;;;;;;;;;6251155;22;20154;-71
2022/12/06 05:37:42;;;;;;;32.53;17.00;;;;;;;;;;6250873;23;20196;-71
2022/12/06 05:40:08;;;;;;;34.23;17.27;;;;;;;;;;6250814;23;20174;-71
2022/12/06 05:42:34;;;;;;;34.03;17.97;;;;;;;;;;6251448;22;20174;-71
2022/12/06 05:45:00;;;;;;;35.27;17.33;;;;;;;;;;6249360;22;20276;-71
2022/12/06 05:47:26;;;;;;;33.03;16.83;;;;;;;;;;6250513;23;20153;-72
2022/12/06 05:49:52;;;;;;;35.93;17.67;;;;;;;;;;6250380;23;20614;-70
2022/12/06 05:52:18;;;;;;;32.57;16.07;;;;;;;;;;6248658;22;20200;-70
2022/12/06 05:54:44;;;;;;;29.43;15.47;;;;;;;;;;6248363;23;20596;-71
2022/12/06 05:57:10;;;;;;;32.77;16.90;;;;;;;;;;6249416;22;20498;-70
2022/12/06 05:59:36;;;;;;;37.20;16.90;;;;;;;;;;6248731;23;20177;-71
2022/12/06 06:02:02;;;;;;;38.47;17.20;;;;;;;;;;6248193;22;20170;-71
2022/12/06 06:04:28;;;;;;;34.97;16.70;;;;;;;;;;6249649;23;20189;-71
2022/12/06 06:06:54;;;;;;;34.00;15.93;;;;;;;;;;6250409;22;20150;-72
2022/12/06 06:09:20;;;;;;;34.27;16.67;;;;;;;;;;6250263;23;20596;-72
2022/12/06 06:11:46;;;;;;;37.50;17.27;;;;;;;;;;6248917;22;20224;-70
2022/12/06 06:14:13;;;;;;;36.93;17.10;;;;;;;;;;6248687;23;20150;-70
2022/12/06 06:16:39;;;;;;;37.23;15.77;;;;;;;;;;6250870;22;20154;-68
2022/12/06 06:19:05;;;;;;;37.17;16.57;;;;;;;;;;6250437;23;20161;-71
2022/12/06 06:21:32;;;;;;;31.20;16.17;;;;;;;;;;6248750;22;20224;-72
2022/12/06 06:23:58;;;;;;;38.47;16.60;;;;;;;;;;6251135;22;20291;-68
2022/12/06 06:26:24;;;;;;;33.33;17.23;;;;;;;;;;6250278;23;20154;-67
2022/12/06 06:28:50;;;;;;;40.70;17.97;;;;;;;;;;6249508;22;20165;-68
2022/12/06 06:31:16;;;;;;;35.43;17.63;;;;;;;;;;6249463;22;20161;-69
2022/12/06 06:33:42;;;;;;;37.27;17.43;;;;;;;;;;6249439;23;20154;-67
2022/12/06 06:36:08;;;;;;;42.60;17.40;;;;;;;;;;6250496;22;20173;-67
2022/12/06 06:38:34;;;;;;;39.80;18.33;;;;;;;;;;6249879;23;20150;-69
2022/12/06 06:41:05;;;;;;;37.90;18.37;;;;;;;;;;6248101;23;20268;-67
2022/12/06 06:43:31;;;;;;;38.33;17.40;;;;;;;;;;6249629;22;20260;-67
2022/12/06 06:46:01;;;;;;;41.07;18.30;;;;;;;;;;6248424;23;20158;-68
2022/12/06 06:48:29;;;;;;;39.77;18.83;;;;;;;;;;6250015;22;20146;-67
2022/12/06 06:50:55;;;;;;;37.27;18.13;;;;;;;;;;6249684;23;20154;-66
2022/12/06 06:53:21;;;;;;;44.00;19.63;;;;;;;;;;6249528;22;20548;-66
2022/12/06 06:55:47;;;;;;;67.83;38.33;;;;;;;;;;6248442;23;20185;-67
2022/12/06 06:58:14;;;;;;;54.17;27.77;;;;;;;;;;6250349;23;20161;-69
2022/12/06 07:00:41;;;;;;;40.20;19.97;;;;;;;;;;6249110;22;20183;-67
2022/12/06 07:03:13;;;;;;;38.50;18.23;;;;;;;;;;6247514;22;20174;-68
2022/12/06 07:05:39;;;;;;;46.57;19.20;;;;;;;;;;6249463;23;20130;-67
2022/12/06 07:08:05;;;;;;;43.30;19.53;;;;;;;;;;6248116;23;20161;-69
2022/12/06 07:10:31;;;;;;;42.47;18.27;;;;;;;;;;6249469;22;20188;-69
2022/12/06 07:12:57;;;;;;;41.10;20.27;;;;;;;;;;6249328;22;20174;-67
2022/12/06 07:15:23;;;;;;;41.87;19.93;;;;;;;;;;6249091;23;20495;-67
2022/12/06 07:17:50;;;;;;;43.63;19.83;;;;;;;;;;6248835;23;20154;-69
2022/12/06 07:20:16;;;;;;;42.47;20.47;;;;;;;;;;6249066;22;20189;-67
2022/12/06 07:22:42;;;;;;;44.53;24.03;;;;;;;;;;6246663;22;20173;-69
2022/12/06 07:25:08;;;;;;;48.37;23.90;;;;;;;;;;6247691;23;20494;-69
2022/12/06 07:27:37;;;;;;;48.67;24.77;;;;;;;;;;6249036;23;20154;-68
2022/12/06 07:30:04;;;;;;;44.67;23.23;;;;;;;;;;6248378;22;20150;-68
2022/12/06 07:32:34;;;;;;;63.30;35.50;;;;;;;;;;6246972;22;20701;-70
2022/12/06 07:35:00;;;;;;;49.27;22.97;;;;;;;;;;6248141;22;20150;-68
2022/12/06 07:37:26;;;;;;;41.40;19.63;;;;;;;;;;6247815;23;20158;-69
2022/12/06 07:39:52;;;;;;;46.33;22.10;;;;;;;;;;6247495;23;20189;-67
2022/12/06 07:45:04;;;;;;;59.17;40.53;;;;;;;;;;6249083;23;20146;-68
2022/12/06 07:47:34;;;;;;;50.27;35.13;;;;;;;;;;6249339;22;20611;-69
2022/12/06 07:50:00;;;;;;;60.20;35.60;;;;;;;;;;6246718;23;20674;-70
2022/12/06 07:52:29;;;;;;;58.53;35.60;;;;;;;;;;6248530;22;20190;-68
2022/12/06 07:54:55;;;;;;;51.27;27.60;;;;;;;;;;6247087;23;20207;-68
2022/12/06 07:57:21;;;;;;;48.00;27.03;;;;;;;;;;6248251;23;20240;-68
2022/12/06 07:59:47;;;;;;;47.60;23.70;;;;;;;;;;6247625;23;20182;-69
2022/12/06 08:02:17;;;;;;;43.63;22.57;;;;;;;;;;6248784;22;20695;-68
2022/12/06 08:04:43;;;;;;;42.07;21.63;;;;;;;;;;6248731;23;20160;-67
2022/12/06 08:07:09;;;;;;;40.77;19.60;;;;;;;;;;6247735;22;20150;-67
2022/12/06 08:09:35;;;;;;;48.50;19.83;;;;;;;;;;6249169;22;20207;-68
2022/12/06 08:12:01;;;;;;;33.70;19.03;;;;;;;;;;6247472;22;20186;-68
2022/12/06 08:14:27;;;;;;;37.57;19.63;;;;;;;;;;6248949;23;20157;-69
2022/12/06 08:16:53;;;;;;;36.00;19.43;;;;;;;;;;6247138;23;20158;-69
2022/12/06 08:19:19;;;;;;;39.00;21.20;;;;;;;;;;6249413;23;20149;-67
2022/12/06 08:21:45;;;;;;;33.37;20.87;;;;;;;;;;6249217;22;20200;-67
2022/12/06 08:24:11;;;;;;;40.33;21.20;;;;;;;;;;6247049;22;20154;-67
2022/12/06 08:26:37;;;;;;;37.07;19.90;;;;;;;;;;6248818;23;20152;-67
2022/12/06 08:29:03;;;;;;;31.33;19.63;;;;;;;;;;6249184;23;20518;-67
2022/12/06 08:31:30;;;;;;;36.57;19.63;;;;;;;;;;6249086;22;20150;-67
2022/12/06 08:33:56;;;;;;;34.73;18.87;;;;;;;;;;6248833;23;20207;-68
2022/12/06 08:36:23;;;;;;;32.40;18.27;;;;;;;;;;6248872;23;20150;-67
2022/12/06 08:38:50;;;;;;;33.13;19.50;;;;;;;;;;6249100;23;20150;-67
2022/12/06 08:44:01;;;;;;;35.83;17.27;;;;;;;;;;6250830;23;20619;-68
2022/12/06 08:46:27;;;;;;;38.77;18.07;;;;;;;;;;6250054;23;20152;-69
2022/12/06 08:48:53;;;;;;;24.63;15.77;;;;;;;;;;6249997;23;20150;-67
2022/12/06 08:51:19;;;;;;;30.47;16.13;;;;;;;;;;6250322;22;20203;-67
2022/12/06 08:53:45;;;;;;;25.53;16.17;;;;;;;;;;6248251;23;20184;-71
2022/12/06 08:56:11;;;;;;;26.50;16.10;;;;;;;;;;6249696;23;20170;-67
2022/12/06 08:58:37;;;;;;;32.63;17.23;;;;;;;;;;6249511;22;20160;-67
2022/12/06 09:01:14;;;;;;;32.50;17.53;;;;;;;;;;6249371;23;20185;-67
2022/12/06 09:03:40;;;;;;;26.60;16.80;;;;;;;;;;6250421;23;20180;-69
2022/12/06 09:06:07;;;;;;;28.23;16.03;;;;;;;;;;6250323;22;20669;-68
2022/12/06 09:08:33;;;;;;;27.87;15.20;;;;;;;;;;6250545;23;20146;-67
2022/12/06 09:10:59;;;;;;;24.07;15.30;;;;;;;;;;6250908;23;20150;-67
2022/12/06 09:13:24;;;;;;;23.27;14.93;;;;;;;;;;6248013;22;20268;-68
2022/12/06 09:15:50;;;;;;;24.17;15.07;;;;;;;;;;6249702;23;20180;-67
2022/12/06 09:18:16;;;;;;;26.27;15.43;;;;;;;;;;6248181;22;20154;-67
2022/12/06 09:20:42;;;;;;;33.77;17.83;;;;;;;;;;6248123;23;20253;-68
2022/12/06 09:23:08;;;;;;;30.63;19.23;;;;;;;;;;6249216;22;20509;-68
2022/12/06 09:25:34;;;;;;;28.33;18.07;;;;;;;;;;6247406;23;20181;-68
2022/12/06 09:28:00;;;;;;;29.00;13.93;;;;;;;;;;6247976;22;20241;-67
2022/12/06 09:30:26;;;;;;;19.23;12.93;;;;;;;;;;6247711;23;20158;-67
2022/12/06 09:32:52;;;;;;;22.27;12.23;;;;;;;;;;6248908;22;20181;-68
2022/12/06 09:35:18;;;;;;;21.20;12.47;;;;;;;;;;6249767;23;20164;-66
2022/12/06 09:37:44;;;;;;;16.83;11.47;;;;;;;;;;6250999;23;20157;-67
2022/12/06 09:40:18;;;;;;;17.33;11.80;;;;;;;;;;6248934;23;20185;-68
2022/12/06 09:42:44;;;;;;;18.37;11.27;;;;;;;;;;6249960;22;20241;-67
2022/12/06 09:45:18;;;;;;;17.13;10.90;;;;;;;;;;6249308;23;20491;-67
2022/12/06 09:47:47;;;;;;;17.23;10.90;;;;;;;;;;6248356;23;20146;-69
2022/12/06 09:50:20;;;;;;;12.43;9.37;;;;;;;;;;6247655;23;20158;-68
2022/12/06 09:52:46;;;;;;;18.90;11.63;;;;;;;;;;6248613;22;20264;-68
2022/12/06 09:55:28;;;;;;;16.47;10.00;;;;;;;;;;6248107;23;20154;-68
2022/12/06 09:58:12;;;;;;;14.77;9.40;;;;;;;;;;6248382;22;20213;-67
2022/12/06 10:00:44;;;;;;;14.37;9.77;;;;;;;;;;6246116;23;20188;-68
2022/12/06 10:03:13;;;;;;;19.07;10.63;;;;;;;;;;6248129;22;20170;-69
2022/12/06 10:05:42;;;;;;;13.50;9.23;;;;;;;;;;6248724;23;20632;-69
2022/12/06 10:08:11;;;;;;;16.20;9.53;;;;;;;;;;6248506;23;20150;-67
2022/12/06 10:10:37;;;;;;;16.73;9.30;;;;;;;;;;6248911;22;20154;-67
2022/12/06 10:13:16;;;;;;;12.60;9.13;;;;;;;;;;6247248;22;20182;-67
2022/12/06 10:15:48;;;;;;;16.30;10.10;;;;;;;;;;6247776;23;20622;-68
2022/12/06 10:18:23;;;;;;;14.13;10.77;;;;;;;;;;6246657;23;20162;-67
2022/12/06 10:20:52;;;;;;;17.07;8.90;;;;;;;;;;6247832;23;20184;-68
2022/12/06 10:23:47;;;;;;;11.97;9.33;;;;;;;;;;6247367;22;20639;-69
2022/12/06 10:26:18;;;;;;;11.50;8.53;;;;;;;;;;6167099;22;20151;-69
2022/12/06 10:28:45;;;;;;;12.67;9.27;;;;;;;;;;6248724;22;20137;-69
2022/12/06 10:31:17;;;;;;;14.10;8.77;;;;;;;;;;6245850;23;20166;-69
2022/12/06 10:33:46;;;;;;;13.83;8.77;;;;;;;;;;6247322;22;20479;-68
2022/12/06 10:36:14;;;;;;;13.27;9.13;;;;;;;;;;6245399;23;20162;-68
2022/12/06 10:38:56;;;;;;;14.97;9.50;;;;;;;;;;6245283;23;20168;-69
2022/12/06 10:41:35;;;;;;;15.57;10.33;;;;;;;;;;6245103;22;20212;-69
2022/12/06 10:44:04;;;;;;;17.90;10.70;;;;;;;;;;6245384;23;20157;-68
2022/12/06 10:49:35;;;;;;;14.03;10.07;;;;;;;;;;6247620;23;20149;-69
2022/12/06 10:52:00;;;;;;;14.13;10.33;;;;;;;;;;6245461;22;20402;-70
2022/12/06 10:54:37;;;;;;;15.70;10.37;;;;;;;;;;6245553;23;20157;-68
2022/12/06 10:57:06;;;;;;;14.67;10.90;;;;;;;;;;6247507;23;20157;-69
2022/12/06 10:59:35;;;;;;;14.27;10.10;;;;;;;;;;6245271;23;20168;-69
2022/12/06 11:02:03;;;;;;;16.20;11.17;;;;;;;;;;6246597;22;20235;-68
2022/12/06 11:04:33;;;;;;;17.97;11.77;;;;;;;;;;6246498;23;20156;-68
2022/12/06 11:07:02;;;;;;;16.30;11.33;;;;;;;;;;6247448;23;20150;-68
2022/12/06 11:09:31;;;;;;;18.07;10.80;;;;;;;;;;6245293;23;20237;-69
2022/12/06 11:11:57;;;;;;;17.27;10.30;;;;;;;;;;6247717;22;20225;-68
2022/12/06 11:14:26;;;;;;;14.83;9.80;;;;;;;;;;6248856;22;20146;-67
2022/12/06 11:17:06;;;;;;;13.17;8.70;;;;;;;;;;6247314;23;20153;-69
2022/12/06 11:19:38;;;;;;;15.67;9.17;;;;;;;;;;6246783;23;20599;-69
2022/12/06 11:22:13;;;;;;;12.80;8.37;;;;;;;;;;6246930;22;20173;-68
2022/12/06 11:24:54;;;;;;;19.73;11.80;;;;;;;;;;6246283;23;20153;-67
2022/12/06 11:27:23;;;;;;;31.73;19.93;;;;;;;;;;6247585;23;20146;-64
2022/12/06 11:29:50;;;;;;;15.73;11.37;;;;;;;;;;6245496;23;20178;-68
2022/12/06 11:32:16;;;;;;;11.57;8.83;;;;;;;;;;6247344;22;20701;-68
2022/12/06 11:34:44;;;;;;;14.97;8.47;;;;;;;;;;6247593;23;20149;-68
2022/12/06 11:37:16;;;;;;;10.70;8.47;;;;;;;;;;6273390;22;20250;-70
2022/12/06 11:39:42;;;;;;;10.03;7.63;;;;;;;;;;6308000;22;20689;-70
2022/12/06 11:42:09;;;;;;;8.77;6.80;;;;;;;;;;6280782;22;20156;-70
2022/12/06 11:44:40;;;;;;;8.73;6.97;;;;;;;;;;6280650;22;20193;-70
2022/12/06 11:47:06;;;;;;;12.17;8.03;;;;;;;;;;6281043;22;20203;-70
2022/12/06 11:49:34;;;;;;;19.60;14.00;;;;;;;;;;6308205;22;20151;-70
2022/12/06 11:52:03;;;;;;;11.67;8.93;;;;;;;;;;6280431;22;20543;-72
2022/12/06 11:54:32;;;;;;;10.93;8.43;;;;;;;;;;6308261;22;20151;-69
2022/12/06 11:57:01;;;;;;;8.97;7.67;;;;;;;;;;6308158;22;20175;-70
2022/12/06 11:59:28;;;;;;;9.37;7.67;;;;;;;;;;6307978;22;20145;-70
2022/12/06 12:02:02;;;;;;;8.13;7.00;;;;;;;;;;6308497;22;20152;-70
2022/12/06 12:04:37;;;;;;;12.60;8.77;;;;;;;;;;6280880;22;20145;-70
2022/12/06 12:07:03;;;;;;;9.83;7.50;;;;;;;;;;6280629;22;20212;-70
2022/12/06 12:09:30;;;;;;;9.67;5.70;;;;;;;;;;6307996;22;20149;-70
2022/12/06 12:12:01;;;;;;;11.80;7.03;;;;;;;;;;6280235;22;20159;-70
2022/12/06 12:14:33;;;;;;;16.63;10.10;;;;;;;;;;6280204;22;20507;-70
2022/12/06 12:17:00;;;;;;;9.40;7.20;;;;;;;;;;6307564;22;20668;-70
2022/12/06 12:19:29;;;;;;;11.07;8.47;;;;;;;;;;6280068;22;20161;-70
2022/12/06 12:21:57;;;;;;;17.87;9.80;;;;;;;;;;6280198;22;20155;-70
2022/12/06 12:24:41;;;;;;;19.57;13.20;;;;;;;;;;6307503;22;20638;-70
2022/12/06 12:27:40;;;;;;;9.07;8.17;;;;;;;;;;6307427;22;20247;-70
2022/12/06 12:30:12;;;;;;;8.30;7.50;;;;;;;;;;6230377;22;20234;-70
2022/12/06 12:32:38;;;;;;;8.73;6.23;;;;;;;;;;6280376;22;20156;-70
2022/12/06 12:35:27;;;;;;;6.97;5.53;;;;;;;;;;6280208;22;20152;-70
2022/12/06 12:37:56;;;;;;;6.43;5.57;;;;;;;;;;6254180;22;20600;-70
2022/12/06 12:40:22;;;;;;;5.70;5.07;;;;;;;;;;6280050;22;20656;-70
2022/12/06 12:42:48;;;;;;;8.53;4.93;;;;;;;;;;6307669;22;20651;-70
2022/12/06 12:45:18;;;;;;;5.20;4.70;;;;;;;;;;6307905;22;20144;-70
2022/12/06 12:48:04;;;;;;;6.07;5.17;;;;;;;;;;6307659;22;20289;-70
2022/12/06 12:50:31;;;;;;;10.50;6.47;;;;;;;;;;6279545;22;20160;-70
2022/12/06 12:52:58;;;;;;;7.97;5.93;;;;;;;;;;6279975;22;20598;-70
2022/12/06 12:55:28;;;;;;;5.60;5.10;;;;;;;;;;6280129;22;20165;-70
2022/12/06 12:57:55;;;;;;;7.77;4.80;;;;;;;;;;6279809;22;20187;-69
2022/12/06 13:00:27;;;;;;;5.10;4.40;;;;;;;;;;6307439;22;20245;-69
2022/12/06 13:02:56;;;;;;;5.67;5.07;;;;;;;;;;6307368;22;20152;-67
2022/12/06 13:05:25;;;;;;;7.40;6.67;;;;;;;;;;6307652;22;20199;-67
2022/12/06 13:07:52;;;;;;;5.33;4.00;;;;;;;;;;6280420;22;20173;-67
2022/12/06 13:10:18;;;;;;;7.77;4.03;;;;;;;;;;6280071;22;20163;-67
2022/12/06 13:38:18;;;;;;;8.17;5.47;;;;;;;;;;5112309;27;20483;-69
2022/12/06 13:40:45;;;;;;;8.17;5.00;;;;;;;;;;5110318;28;20212;-69
2022/12/06 13:43:31;;;;;;;11.83;4.80;;;;;;;;;;5111424;28;20181;-69
2022/12/06 13:46:06;;;;;;;7.07;4.60;;;;;;;;;;5109527;28;20203;-69
2022/12/06 13:48:32;;;;;;;7.53;3.87;;;;;;;;;;5109829;28;20279;-68
2022/12/06 13:51:00;;;;;;;6.13;4.00;;;;;;;;;;5110149;28;20270;-69
2022/12/06 13:53:28;;;;;;;6.73;4.77;;;;;;;;;;5111125;28;20184;-69
2022/12/06 13:56:12;;;;;;;7.47;4.37;;;;;;;;;;5111889;28;20655;-68
2022/12/06 13:58:39;;;;;;;4.53;4.13;;;;;;;;;;5110573;28;20339;-68
2022/12/06 14:01:25;;;;;;;6.30;4.60;;;;;;;;;;5110174;28;20572;-69
2022/12/06 14:03:55;;;;;;;8.23;4.57;;;;;;;;;;5110650;28;20234;-69
2022/12/06 14:06:40;;;;;;;6.97;4.53;;;;;;;;;;5109436;28;20234;-69
2022/12/06 14:09:08;;;;;;;6.40;5.20;;;;;;;;;;5110820;28;20539;-69
2022/12/06 14:11:34;;;;;;;8.07;5.10;;;;;;;;;;5110967;28;20187;-69
2022/12/06 14:14:02;;;;;;;5.97;5.13;;;;;;;;;;5110491;28;20181;-69
2022/12/06 14:16:28;;;;;;;9.27;6.83;;;;;;;;;;5110382;28;20207;-69
2022/12/06 14:18:54;;;;;;;11.57;8.10;;;;;;;;;;5109076;28;20181;-69
2022/12/06 14:21:29;;;;;;;10.97;6.90;;;;;;;;;;5110455;28;20165;-69
2022/12/06 14:23:56;;;;;;;9.40;7.07;;;;;;;;;;5109051;28;20182;-69
2022/12/06 14:26:22;;;;;;;8.80;6.40;;;;;;;;;;5108899;28;20317;-69
2022/12/06 14:28:49;;;;;;;5.37;4.43;;;;;;;;;;5108994;28;20267;-69
2022/12/06 14:31:21;;;;;;;6.57;4.23;;;;;;;;;;5110171;28;20188;-69
2022/12/06 14:33:47;;;;;;;5.87;4.03;;;;;;;;;;5108962;28;20180;-69
2022/12/06 14:36:24;;;;;;;6.07;4.27;;;;;;;;;;5109864;28;20668;-69
2022/12/06 14:39:10;;;;;;;6.27;4.80;;;;;;;;;;5110581;28;20186;-69
2022/12/06 14:44:30;;;;;;;9.37;4.30;;;;;;;;;;5110314;28;20168;-69
2022/12/06 14:46:56;;;;;;;11.77;4.10;;;;;;;;;;5109778;28;20674;-69
2022/12/06 14:52:25;;;;;;;11.87;4.90;;;;;;;;;;5096491;28;20287;-69
2022/12/06 14:54:52;;;;;;;7.50;4.90;;;;;;;;;;5096182;28;20637;-69
2022/12/06 14:57:20;;;;;;;5.87;4.93;;;;;;;;;;5096037;28;20213;-69
2022/12/06 14:59:46;;;;;;;7.07;4.43;;;;;;;;;;5094747;28;20628;-69
2022/12/06 15:02:22;;;;;;;6.67;5.13;;;;;;;;;;5096044;28;20177;-69
2022/12/06 15:04:48;;;;;;;10.93;6.37;;;;;;;;;;5096124;28;20222;-69
2022/12/06 15:07:31;;;;;;;6.70;4.90;;;;;;;;;;5095025;28;20287;-70
2022/12/06 15:10:07;;;;;;;6.03;5.03;;;;;;;;;;5096030;28;20230;-68
2022/12/06 15:15:35;;;;;;;5.83;5.10;;;;;;;;;;5096187;28;20172;-68
2022/12/06 15:18:13;;;;;;;6.63;5.03;;;;;;;;;;5096072;28;20216;-69
2022/12/06 15:20:39;;;;;;;11.77;5.40;;;;;;;;;;5094728;28;20600;-68
2022/12/06 15:23:24;;;;;;;6.83;5.03;;;;;;;;;;5096521;28;20267;-67
2022/12/06 15:25:50;;;;;;;7.97;5.60;;;;;;;;;;5096111;28;20180;-69
2022/12/06 15:28:17;;;;;;;5.80;5.20;;;;;;;;;;5097644;28;20193;-68
2022/12/06 15:30:43;;;;;;;6.43;5.40;;;;;;;;;;5094664;28;20256;-68
2022/12/06 15:33:15;;;;;;;9.07;5.20;;;;;;;;;;5095733;28;20201;-68
2022/12/06 15:35:41;;;;;;;19.70;12.20;;;;;;;;;;5100228;28;20178;-68
2022/12/06 15:38:08;;;;;;;29.47;24.93;;;;;;;;;;5104417;28;20212;-69
2022/12/06 15:40:35;;;;;;;9.97;6.07;;;;;;;;;;5105692;28;20184;-68